Jinotega, Nicaragua
Current Conditions -  °F | °C
As of 1:00 AM on Saturday 20 Dec 2014 (Local Time) from MNMG Reporting Station
Clear Clear  
Wind Chill: 77°   Ceiling: Unl
Heat Index: 79°   Visibility: 6mi
Dew Point: 68°   Wind: 9mph
Humidity: 74%   Direction: 110°ESE
Pressure: 29.83"   Gusts: NA
Location:  13.1°N, 86°W
Report Text: MNMG 200700Z 11008KT CAVOK 25/20 Q1010 A2985 NOSIG
Loading
Personal Weather Stations






























Interactive Weather Map New forecast layout! Learn more

10-Day Weather Forecast

Advertisements
Track Severe Weather on mobile